Time;durP1;ratioP1;P1;durP2;ratioP2;P2;SDS_P1;SDS_P2;PMS_P1;PMS_P2;Temp;Humidity;BMP_temperature;BMP_pressure;BME280_temperature;BME280_humidity;BME280_pressure;Samples;Min_cycle;Max_cycle;Signal;HPM_P1;HPM_P2
2021/09/04 00:01:14;;;;;;;13.40;7.82;;;15.40;78.90;;;;;;5071875;28;20063;-79
2021/09/04 00:03:40;;;;;;;14.82;9.15;;;15.40;78.70;;;;;;5070948;28;20455;-80
2021/09/04 00:06:05;;;;;;;13.50;8.32;;;15.30;79.00;;;;;;5072347;28;20036;-80
2021/09/04 00:08:31;;;;;;;12.00;7.70;;;15.20;79.20;;;;;;5072839;28;20016;-80
2021/09/04 00:10:56;;;;;;;10.88;7.15;;;15.20;79.30;;;;;;5071715;28;20402;-81
2021/09/04 00:13:22;;;;;;;10.15;6.85;;;15.20;79.10;;;;;;5065914;28;20036;-80
2021/09/04 00:15:47;;;;;;;9.40;6.32;;;15.20;79.10;;;;;;5072325;28;20040;-80
2021/09/04 00:18:13;;;;;;;12.32;8.82;;;15.20;79.00;;;;;;5071998;28;20047;-80
2021/09/04 00:20:38;;;;;;;10.27;7.30;;;15.10;79.60;;;;;;5072844;28;20079;-80
2021/09/04 00:23:04;;;;;;;11.00;7.32;;;15.10;79.80;;;;;;5063091;28;20024;-79
2021/09/04 00:25:29;;;;;;;14.18;7.88;;;15.10;79.70;;;;;;5071409;28;20017;-80
2021/09/04 00:27:55;;;;;;;12.20;8.10;;;15.10;79.40;;;;;;5070629;28;20121;-80
2021/09/04 00:30:21;;;;;;;10.52;7.10;;;15.00;79.30;;;;;;5072736;28;20037;-80
2021/09/04 00:32:46;;;;;;;12.65;8.10;;;15.00;79.40;;;;;;5065265;28;20036;-81
2021/09/04 00:35:12;;;;;;;13.02;9.15;;;15.00;79.70;;;;;;5072457;28;20028;-81
2021/09/04 00:37:37;;;;;;;11.75;7.75;;;15.00;80.00;;;;;;5072144;28;20008;-80
2021/09/04 00:40:04;;;;;;;14.15;8.23;;;14.90;80.30;;;;;;5070634;28;20028;-81
2021/09/04 00:42:30;;;;;;;11.57;7.07;;;14.90;80.20;;;;;;5071224;28;20025;-80
2021/09/04 00:44:56;;;;;;;11.73;6.90;;;14.90;80.00;;;;;;5071562;28;20123;-80
2021/09/04 00:47:23;;;;;;;12.48;8.48;;;14.80;80.00;;;;;;5072216;28;20038;-81
2021/09/04 00:49:48;;;;;;;10.80;6.55;;;14.80;80.50;;;;;;5070836;28;20032;-80
2021/09/04 00:52:16;;;;;;;11.88;7.60;;;14.80;80.40;;;;;;5072245;28;20025;-80
2021/09/04 00:54:41;;;;;;;11.38;7.07;;;14.80;80.40;;;;;;5071751;28;20058;-80
2021/09/04 00:57:07;;;;;;;14.15;9.25;;;14.70;80.60;;;;;;5071363;28;20016;-82
2021/09/04 00:59:34;;;;;;;12.45;7.97;;;14.70;81.10;;;;;;5071378;28;20029;-81
2021/09/04 01:01:59;;;;;;;9.75;6.93;;;14.60;81.20;;;;;;5071220;28;20547;-82
2021/09/04 01:04:25;;;;;;;12.50;8.57;;;14.60;81.20;;;;;;5071446;28;20028;-81
2021/09/04 01:06:51;;;;;;;9.23;6.00;;;14.60;81.50;;;;;;5070366;28;20089;-81
2021/09/04 01:09:17;;;;;;;11.90;7.10;;;14.60;81.20;;;;;;5069377;28;20071;-81
2021/09/04 01:11:43;;;;;;;13.48;7.55;;;14.70;80.90;;;;;;5069954;28;20059;-82
2021/09/04 01:14:08;;;;;;;11.13;8.25;;;14.60;80.80;;;;;;5069519;28;20111;-82
2021/09/04 01:16:36;;;;;;;10.93;6.53;;;14.60;81.20;;;;;;5068913;28;20094;-82
2021/09/04 01:19:02;;;;;;;12.48;7.18;;;14.50;81.00;;;;;;5071542;28;20412;-81
2021/09/04 01:21:27;;;;;;;11.63;6.25;;;14.60;80.80;;;;;;5071060;28;20170;-82
2021/09/04 01:23:53;;;;;;;12.38;6.90;;;14.60;80.90;;;;;;5071563;28;21841;-81
2021/09/04 01:26:19;;;;;;;10.57;7.57;;;14.60;80.60;;;;;;5066755;28;20013;-81
2021/09/04 01:28:44;;;;;;;11.48;6.30;;;14.60;80.60;;;;;;5068986;28;20021;-80
2021/09/04 01:31:10;;;;;;;16.45;8.85;;;14.60;80.60;;;;;;5070131;28;20111;-81
2021/09/04 01:33:43;;;;;;;8.35;5.65;;;14.60;80.70;;;;;;5071118;28;20367;-82
2021/09/04 01:36:09;;;;;;;12.80;7.72;;;14.60;80.70;;;;;;5069753;28;20020;-81
2021/09/04 01:38:35;;;;;;;10.50;5.75;;;14.50;80.70;;;;;;5071497;28;20036;-81
2021/09/04 01:41:00;;;;;;;11.05;7.88;;;14.60;80.60;;;;;;5070627;28;20505;-81
2021/09/04 01:43:26;;;;;;;12.43;7.72;;;14.50;80.50;;;;;;5070544;28;20063;-81
2021/09/04 01:45:51;;;;;;;15.30;8.13;;;14.50;80.70;;;;;;5069827;28;20090;-81
2021/09/04 01:48:17;;;;;;;12.68;8.55;;;14.50;80.90;;;;;;5071130;28;20016;-81
2021/09/04 01:50:42;;;;;;;9.23;6.22;;;14.50;81.20;;;;;;5070197;28;20109;-81
2021/09/04 01:53:08;;;;;;;10.10;6.00;;;14.50;81.20;;;;;;5067135;28;20554;-81
2021/09/04 01:55:33;;;;;;;8.15;5.05;;;14.50;80.90;;;;;;5063583;28;20033;-80
2021/09/04 01:57:59;;;;;;;7.40;4.68;;;14.50;80.60;;;;;;5070394;28;20031;-80
2021/09/04 02:00:24;;;;;;;8.75;5.15;;;14.50;80.50;;;;;;5067999;28;20029;-81
2021/09/04 02:02:50;;;;;;;10.07;5.72;;;14.50;80.40;;;;;;5067236;28;20025;-81
2021/09/04 02:05:15;;;;;;;12.20;7.07;;;14.50;80.20;;;;;;5056140;28;20021;-81
2021/09/04 02:07:41;;;;;;;8.68;5.82;;;14.50;80.40;;;;;;5068769;28;20017;-81
2021/09/04 02:10:07;;;;;;;9.35;5.90;;;14.50;80.30;;;;;;5068416;28;20037;-81
2021/09/04 02:12:33;;;;;;;10.20;6.80;;;14.40;80.20;;;;;;5064931;28;20099;-82
2021/09/04 02:14:58;;;;;;;11.38;7.07;;;14.40;80.30;;;;;;5069261;28;20115;-81
2021/09/04 02:17:24;;;;;;;11.32;7.22;;;14.40;80.30;;;;;;5069007;28;20496;-80
2021/09/04 02:19:49;;;;;;;12.18;6.97;;;14.40;80.40;;;;;;5071435;28;20028;-81
2021/09/04 02:22:15;;;;;;;10.82;6.97;;;14.40;80.50;;;;;;5069746;28;20108;-81
2021/09/04 02:24:41;;;;;;;14.30;8.98;;;14.40;80.90;;;;;;5070906;28;20025;-81
2021/09/04 02:27:07;;;;;;;14.30;9.43;;;14.30;81.20;;;;;;5065002;28;20060;-80
2021/09/04 02:29:32;;;;;;;11.30;7.43;;;14.30;81.40;;;;;;5075862;28;20021;-80
2021/09/04 02:31:58;;;;;;;11.95;6.70;;;14.30;81.50;;;;;;5069214;28;20054;-82
2021/09/04 02:34:23;;;;;;;10.80;6.47;;;14.30;81.30;;;;;;5064198;28;20466;-81
2021/09/04 02:36:49;;;;;;;10.82;6.53;;;14.30;81.10;;;;;;5069092;28;20446;-81
2021/09/04 02:39:14;;;;;;;9.82;7.20;;;14.40;81.10;;;;;;5069327;28;20020;-81
2021/09/04 02:41:40;;;;;;;16.00;9.20;;;14.40;81.20;;;;;;5070123;28;20418;-81
2021/09/04 02:44:06;;;;;;;15.95;10.18;;;14.30;81.30;;;;;;5070004;28;20035;-82
2021/09/04 02:46:31;;;;;;;18.02;10.55;;;14.20;82.50;;;;;;5069691;28;20056;-82
2021/09/04 02:48:57;;;;;;;18.80;10.38;;;14.20;82.80;;;;;;5069984;28;20115;-82
2021/09/04 02:51:22;;;;;;;9.65;5.93;;;14.10;83.00;;;;;;5070243;28;20643;-82
2021/09/04 02:53:48;;;;;;;9.32;5.57;;;14.10;83.10;;;;;;5070237;28;20033;-82
2021/09/04 02:56:13;;;;;;;17.27;10.32;;;14.20;83.00;;;;;;5070139;28;20020;-82
2021/09/04 02:58:39;;;;;;;12.68;7.90;;;14.20;83.20;;;;;;5058335;28;20098;-80
2021/09/04 03:01:04;;;;;;;11.50;6.50;;;14.20;83.20;;;;;;5069788;28;20356;-80
2021/09/04 03:03:30;;;;;;;9.75;5.85;;;14.20;82.90;;;;;;5070135;28;20024;-80
2021/09/04 03:05:58;;;;;;;10.45;6.82;;;14.30;82.50;;;;;;5062295;28;20631;-80
2021/09/04 03:08:23;;;;;;;12.13;7.10;;;14.30;82.30;;;;;;5066913;28;20029;-80
2021/09/04 03:10:48;;;;;;;8.60;5.68;;;14.30;82.30;;;;;;5068295;28;20396;-79
2021/09/04 03:13:14;;;;;;;11.82;7.45;;;14.30;82.30;;;;;;5068129;28;20028;-79
2021/09/04 03:15:39;;;;;;;10.68;5.28;;;14.20;82.90;;;;;;5068967;28;20059;-79
2021/09/04 03:18:05;;;;;;;11.77;7.55;;;14.30;82.70;;;;;;5067912;28;20021;-79
2021/09/04 03:20:31;;;;;;;14.13;5.85;;;14.30;82.70;;;;;;5068879;28;20487;-79
2021/09/04 03:22:56;;;;;;;13.02;9.02;;;14.30;82.60;;;;;;5078366;28;20059;-79
2021/09/04 03:25:22;;;;;;;17.55;10.68;;;14.30;82.80;;;;;;5067064;28;20073;-79
2021/09/04 03:27:47;;;;;;;13.73;9.32;;;14.20;83.90;;;;;;5071479;28;20036;-79
2021/09/04 03:30:13;;;;;;;11.50;6.47;;;14.20;84.40;;;;;;5073007;28;20040;-80
2021/09/04 03:32:38;;;;;;;9.38;6.35;;;14.30;84.20;;;;;;5071241;28;20025;-80
2021/09/04 03:35:04;;;;;;;11.70;5.28;;;14.30;83.80;;;;;;5071556;28;20032;-80
2021/09/04 03:37:30;;;;;;;9.02;6.05;;;14.40;83.50;;;;;;5071743;28;20024;-80
2021/09/04 03:39:55;;;;;;;11.90;7.40;;;14.40;83.30;;;;;;5072668;28;20036;-80
2021/09/04 03:42:21;;;;;;;11.55;6.97;;;14.40;83.40;;;;;;5070687;28;20094;-80
2021/09/04 03:44:47;;;;;;;9.40;6.07;;;14.40;83.40;;;;;;5073335;28;20038;-81
2021/09/04 03:47:12;;;;;;;7.40;4.50;;;14.50;83.30;;;;;;5063677;28;20043;-80
2021/09/04 03:49:38;;;;;;;10.65;6.45;;;14.50;83.10;;;;;;5072741;28;20409;-81
2021/09/04 03:52:04;;;;;;;7.55;5.18;;;14.50;82.90;;;;;;5072865;28;20031;-81
2021/09/04 03:54:30;;;;;;;8.55;4.93;;;14.60;82.90;;;;;;5070896;28;20034;-81
2021/09/04 03:56:55;;;;;;;8.00;5.18;;;14.60;82.70;;;;;;5071211;28;20115;-81
2021/09/04 03:59:21;;;;;;;8.48;4.32;;;14.60;82.50;;;;;;5072489;28;20463;-80
2021/09/04 04:01:48;;;;;;;7.68;5.40;;;14.70;82.50;;;;;;5071841;28;20028;-80
2021/09/04 04:04:13;;;;;;;7.30;4.53;;;14.60;82.60;;;;;;5073599;28;20447;-82
2021/09/04 04:06:39;;;;;;;7.57;5.45;;;14.60;82.50;;;;;;5071691;28;20139;-82
2021/09/04 04:09:04;;;;;;;19.52;8.80;;;14.70;82.60;;;;;;5073269;28;20368;-81
2021/09/04 04:11:30;;;;;;;12.00;7.50;;;14.60;82.90;;;;;;5072188;28;20060;-81
2021/09/04 04:13:55;;;;;;;9.68;5.88;;;14.50;83.60;;;;;;5066446;28;20032;-81
2021/09/04 04:16:21;;;;;;;7.97;5.43;;;14.50;83.60;;;;;;5069161;28;20162;-81
2021/09/04 04:18:47;;;;;;;9.25;5.85;;;14.60;83.30;;;;;;5071341;28;20546;-81
2021/09/04 04:21:12;;;;;;;12.90;8.48;;;14.60;83.10;;;;;;5072182;28;20467;-80
2021/09/04 04:23:38;;;;;;;12.07;7.78;;;14.60;83.60;;;;;;5071738;28;20020;-78
2021/09/04 04:26:04;;;;;;;11.35;5.95;;;14.60;83.90;;;;;;5070252;28;20036;-78
2021/09/04 04:28:30;;;;;;;16.42;7.72;;;14.60;83.90;;;;;;5071754;28;20021;-79
2021/09/04 04:30:55;;;;;;;14.43;5.68;;;14.60;83.60;;;;;;5070832;28;20483;-81
2021/09/04 04:33:21;;;;;;;8.88;6.25;;;14.60;83.50;;;;;;5071882;28;20082;-80
2021/09/04 04:35:46;;;;;;;7.15;5.22;;;14.60;83.50;;;;;;5066122;28;20383;-80
2021/09/04 04:38:12;;;;;;;6.65;4.72;;;14.60;83.40;;;;;;5072249;28;20127;-81
2021/09/04 04:40:37;;;;;;;12.10;7.10;;;14.60;83.30;;;;;;5071646;28;20025;-81
2021/09/04 04:43:03;;;;;;;9.30;6.45;;;14.60;83.30;;;;;;5072039;28;20029;-81
2021/09/04 04:45:28;;;;;;;12.68;8.32;;;14.60;83.40;;;;;;5067401;28;20024;-81
2021/09/04 04:47:54;;;;;;;8.90;4.68;;;14.60;83.40;;;;;;5071624;28;20028;-81
2021/09/04 04:50:20;;;;;;;8.52;5.20;;;14.60;83.50;;;;;;5066405;28;20037;-81
2021/09/04 04:52:45;;;;;;;10.68;6.90;;;14.70;83.40;;;;;;5068814;28;20747;-81
2021/09/04 04:55:11;;;;;;;9.55;7.07;;;14.70;83.40;;;;;;5064742;28;20075;-82
2021/09/04 04:57:37;;;;;;;17.65;9.52;;;14.70;83.80;;;;;;5069966;28;20067;-82
2021/09/04 05:00:03;;;;;;;11.00;7.50;;;14.60;84.30;;;;;;5071104;28;20155;-81
2021/09/04 05:02:28;;;;;;;17.63;11.55;;;14.50;84.60;;;;;;5069480;28;20032;-81
2021/09/04 05:04:54;;;;;;;14.25;9.38;;;14.50;85.30;;;;;;5071376;28;20020;-80
2021/09/04 05:07:20;;;;;;;10.45;5.95;;;14.40;85.70;;;;;;5071069;28;20486;-81
2021/09/04 05:09:45;;;;;;;12.23;8.13;;;14.50;85.60;;;;;;5069942;28;20036;-81
2021/09/04 05:12:11;;;;;;;9.90;7.22;;;14.50;85.20;;;;;;5071345;28;20100;-81
2021/09/04 05:14:36;;;;;;;9.02;5.50;;;14.50;85.10;;;;;;5071831;28;20054;-81
2021/09/04 05:17:02;;;;;;;10.23;6.88;;;14.60;84.80;;;;;;5070830;28;20476;-80
2021/09/04 05:19:29;;;;;;;10.07;7.05;;;14.60;84.60;;;;;;5071208;28;20383;-79
2021/09/04 05:21:55;;;;;;;13.55;8.98;;;14.60;84.40;;;;;;5071288;28;20446;-80
2021/09/04 05:24:20;;;;;;;10.15;6.38;;;14.60;84.60;;;;;;5071385;28;20020;-85
2021/09/04 05:26:46;;;;;;;7.35;5.07;;;14.60;84.60;;;;;;5070689;28;20028;-80
2021/09/04 05:29:11;;;;;;;12.30;6.43;;;14.60;84.40;;;;;;5071469;28;20025;-80
2021/09/04 05:31:36;;;;;;;14.38;9.07;;;14.60;84.40;;;;;;5068601;28;20043;-80
2021/09/04 05:34:02;;;;;;;12.70;8.15;;;14.60;84.40;;;;;;5071012;28;20036;-81
2021/09/04 05:36:28;;;;;;;10.23;6.82;;;14.60;84.50;;;;;;5070867;28;20036;-79
2021/09/04 05:38:53;;;;;;;10.07;6.22;;;14.60;84.40;;;;;;5070497;28;20127;-79
2021/09/04 05:41:19;;;;;;;11.35;7.82;;;14.60;84.20;;;;;;5065819;28;20051;-79
2021/09/04 05:43:45;;;;;;;11.93;6.65;;;14.60;84.20;;;;;;5070668;28;20032;-80
2021/09/04 05:46:10;;;;;;;9.73;6.28;;;14.60;84.10;;;;;;5068879;28;20032;-79
2021/09/04 05:48:36;;;;;;;10.02;6.05;;;14.70;83.90;;;;;;5070597;28;20024;-80
2021/09/04 05:51:01;;;;;;;10.23;5.88;;;14.70;83.60;;;;;;5065375;28;20522;-80
2021/09/04 05:53:27;;;;;;;8.45;5.68;;;14.80;83.50;;;;;;5070463;28;20029;-81
2021/09/04 05:55:52;;;;;;;12.73;7.28;;;14.80;83.40;;;;;;5069677;28;20040;-80
2021/09/04 05:58:18;;;;;;;11.25;7.15;;;14.80;83.20;;;;;;5071144;28;20031;-78
2021/09/04 06:00:43;;;;;;;13.52;8.55;;;14.90;83.40;;;;;;5067922;28;20027;-79
2021/09/04 06:03:09;;;;;;;10.55;7.50;;;14.80;83.50;;;;;;5069847;28;20043;-81
2021/09/04 06:05:36;;;;;;;10.63;5.93;;;14.80;83.40;;;;;;5070177;28;20047;-80
2021/09/04 06:08:01;;;;;;;14.05;9.60;;;14.90;83.40;;;;;;5070242;28;20115;-81
2021/09/04 06:10:27;;;;;;;12.32;8.13;;;14.90;83.40;;;;;;5070094;28;20179;-80
2021/09/04 06:12:53;;;;;;;9.32;6.07;;;14.80;83.90;;;;;;5070296;28;20065;-80
2021/09/04 06:15:18;;;;;;;9.68;6.40;;;14.90;83.90;;;;;;5067920;28;20037;-81
2021/09/04 06:17:44;;;;;;;11.15;6.25;;;14.90;83.60;;;;;;5066795;28;20020;-81
2021/09/04 06:20:09;;;;;;;12.68;7.47;;;15.00;83.40;;;;;;5067614;28;20472;-81
2021/09/04 06:22:36;;;;;;;12.30;7.88;;;15.00;83.10;;;;;;5068248;28;20020;-81
2021/09/04 06:25:03;;;;;;;19.33;11.82;;;15.00;83.00;;;;;;5059212;28;20474;-82
2021/09/04 06:27:28;;;;;;;16.02;9.95;;;14.90;83.10;;;;;;5054350;28;20031;-83
2021/09/04 06:29:54;;;;;;;12.98;8.38;;;14.90;83.60;;;;;;5068271;28;20402;-83
2021/09/04 06:32:19;;;;;;;15.50;9.48;;;14.90;83.60;;;;;;5069666;28;20059;-82
2021/09/04 06:34:45;;;;;;;18.20;11.50;;;14.90;83.60;;;;;;5067882;28;20032;-81
2021/09/04 06:37:10;;;;;;;11.75;7.53;;;14.80;83.70;;;;;;5067401;28;20048;-82
2021/09/04 06:39:36;;;;;;;16.48;11.02;;;14.80;83.80;;;;;;5069763;28;20043;-80
2021/09/04 06:42:02;;;;;;;13.48;9.13;;;14.80;83.70;;;;;;5068873;28;20486;-82
2021/09/04 06:44:27;;;;;;;18.10;12.13;;;14.80;83.60;;;;;;5068504;28;20375;-81
2021/09/04 06:46:53;;;;;;;17.67;10.70;;;14.70;83.40;;;;;;5068857;28;20025;-81
2021/09/04 06:49:19;;;;;;;21.45;13.20;;;14.70;83.50;;;;;;5067979;28;20029;-82
2021/09/04 06:51:44;;;;;;;12.68;8.80;;;14.60;83.50;;;;;;5068510;28;20052;-81
2021/09/04 06:54:10;;;;;;;16.75;11.52;;;14.60;83.60;;;;;;5069316;28;20029;-83
2021/09/04 06:56:35;;;;;;;14.05;9.63;;;14.70;83.30;;;;;;5071115;28;20111;-80
2021/09/04 06:59:01;;;;;;;16.23;10.30;;;14.70;83.00;;;;;;5069123;28;20024;-80
2021/09/04 07:01:26;;;;;;;16.95;11.55;;;14.80;82.90;;;;;;5073300;28;20115;-81
2021/09/04 07:03:52;;;;;;;12.82;8.73;;;14.80;82.50;;;;;;5073280;28;20082;-81
2021/09/04 07:06:17;;;;;;;13.07;9.27;;;14.90;82.30;;;;;;5072866;28;20459;-81
2021/09/04 07:08:43;;;;;;;16.75;11.55;;;14.90;82.10;;;;;;5073583;28;20028;-80
2021/09/04 07:11:09;;;;;;;17.70;11.07;;;14.80;82.00;;;;;;5072608;28;20035;-80
2021/09/04 07:13:34;;;;;;;13.80;8.57;;;14.80;82.10;;;;;;5067954;28;20031;-81
2021/09/04 07:16:00;;;;;;;16.45;11.05;;;15.00;82.10;;;;;;5067656;28;20033;-81
2021/09/04 07:18:25;;;;;;;15.95;10.38;;;14.80;81.50;;;;;;5072157;28;20081;-81
2021/09/04 07:20:52;;;;;;;12.13;8.13;;;14.80;81.60;;;;;;5073301;28;20020;-81
2021/09/04 07:23:17;;;;;;;14.27;8.73;;;14.90;82.20;;;;;;5068855;28;20036;-80
2021/09/04 07:25:43;;;;;;;16.50;10.73;;;14.90;81.30;;;;;;5073294;28;20016;-80
2021/09/04 07:28:09;;;;;;;15.05;10.48;;;15.00;81.00;;;;;;5067216;28;20056;-81
2021/09/04 07:30:34;;;;;;;18.73;12.07;;;14.90;80.70;;;;;;5062691;28;20060;-81
2021/09/04 07:33:00;;;;;;;15.35;10.88;;;14.80;81.00;;;;;;5072164;28;20032;-80
2021/09/04 07:35:26;;;;;;;18.33;12.57;;;14.80;81.20;;;;;;5066546;28;20032;-81
2021/09/04 07:37:52;;;;;;;16.27;12.07;;;14.80;81.20;;;;;;5071016;28;20097;-81
2021/09/04 07:40:17;;;;;;;12.20;8.27;;;14.80;81.20;;;;;;5072500;28;20020;-81
2021/09/04 07:42:43;;;;;;;12.25;8.50;;;14.90;81.20;;;;;;5073107;28;20028;-81
2021/09/04 07:45:09;;;;;;;13.18;9.65;;;15.00;81.00;;;;;;5067403;28;20036;-82
2021/09/04 07:47:34;;;;;;;16.67;11.27;;;15.00;80.70;;;;;;5064568;28;20036;-80
2021/09/04 07:50:00;;;;;;;14.65;9.95;;;15.00;80.40;;;;;;5063155;28;20051;-78
2021/09/04 07:52:25;;;;;;;13.70;10.10;;;15.00;80.60;;;;;;5065835;28;20024;-76
2021/09/04 07:54:51;;;;;;;14.23;9.57;;;15.10;80.50;;;;;;5065545;28;20371;-77
2021/09/04 07:57:18;;;;;;;15.50;10.77;;;15.20;80.10;;;;;;5071078;28;20040;-76
2021/09/04 07:59:43;;;;;;;12.70;8.85;;;15.20;79.80;;;;;;5071258;28;20044;-76
2021/09/04 08:02:09;;;;;;;17.65;11.77;;;15.30;79.90;;;;;;5067526;28;20039;-76
2021/09/04 08:04:35;;;;;;;15.95;11.10;;;15.20;79.50;;;;;;5065950;28;20029;-76
2021/09/04 08:07:00;;;;;;;13.38;8.98;;;15.20;79.60;;;;;;5068819;28;20036;-76
2021/09/04 08:09:26;;;;;;;10.93;7.68;;;15.30;79.70;;;;;;5069623;28;20375;-77
2021/09/04 08:11:52;;;;;;;8.15;5.47;;;15.40;79.60;;;;;;5070966;28;20021;-77
2021/09/04 08:14:17;;;;;;;12.07;8.68;;;15.60;79.30;;;;;;5064545;28;20042;-77
2021/09/04 08:16:44;;;;;;;15.80;10.48;;;15.70;78.60;;;;;;5068737;28;20016;-77
2021/09/04 08:19:09;;;;;;;14.18;9.48;;;15.60;78.20;;;;;;5071929;28;20020;-77
2021/09/04 08:21:35;;;;;;;11.70;8.65;;;15.60;78.40;;;;;;5068769;28;20032;-78
2021/09/04 08:24:00;;;;;;;13.45;9.30;;;15.70;78.40;;;;;;5069664;28;20028;-78
2021/09/04 08:26:26;;;;;;;16.95;10.93;;;15.80;78.20;;;;;;5069662;28;20025;-78
2021/09/04 08:28:51;;;;;;;15.75;10.65;;;15.80;77.50;;;;;;5071862;28;20501;-83
2021/09/04 08:31:17;;;;;;;11.20;7.70;;;15.80;77.40;;;;;;5072422;28;20119;-90
2021/09/04 08:33:42;;;;;;;8.88;6.10;;;15.80;77.40;;;;;;5071717;28;20539;-81
2021/09/04 08:36:08;;;;;;;8.15;5.88;;;16.00;77.10;;;;;;5065274;28;20032;-80
2021/09/04 08:38:34;;;;;;;8.75;6.47;;;16.20;76.60;;;;;;5068917;28;20149;-79
2021/09/04 08:40:59;;;;;;;10.07;6.20;;;16.40;76.20;;;;;;5070016;28;20028;-81
2021/09/04 08:43:25;;;;;;;9.27;6.43;;;16.50;75.90;;;;;;5068515;28;20046;-81
2021/09/04 08:45:50;;;;;;;10.63;6.63;;;16.60;75.40;;;;;;5070898;28;20024;-80
2021/09/04 08:48:19;;;;;;;7.10;5.57;;;16.60;75.00;;;;;;5071525;28;20032;-81
2021/09/04 08:50:45;;;;;;;9.20;5.65;;;16.70;74.90;;;;;;5070856;28;20568;-81
2021/09/04 08:53:10;;;;;;;11.15;6.53;;;16.90;74.60;;;;;;5072337;28;20446;-81
2021/09/04 08:55:36;;;;;;;8.50;6.28;;;17.10;74.00;;;;;;5071901;28;20024;-81
2021/09/04 08:58:02;;;;;;;10.27;7.35;;;17.30;73.60;;;;;;5071731;28;20016;-81
2021/09/04 09:00:33;;;;;;;11.48;8.00;;;17.40;72.80;;;;;;5072010;28;20533;-81
2021/09/04 09:02:59;;;;;;;9.93;7.55;;;17.40;72.50;;;;;;5066114;28;20074;-81
2021/09/04 09:05:27;;;;;;;7.68;5.97;;;17.40;72.60;;;;;;5070901;28;20012;-82
2021/09/04 09:07:53;;;;;;;15.23;10.02;;;17.50;72.60;;;;;;5070434;28;20762;-80
2021/09/04 09:10:21;;;;;;;12.38;7.97;;;17.40;71.60;;;;;;5070211;28;20062;-81
2021/09/04 09:12:50;;;;;;;13.00;7.97;;;17.40;72.10;;;;;;5071686;28;20025;-81
2021/09/04 09:15:30;;;;;;;13.48;9.15;;;17.40;72.00;;;;;;5071636;28;20025;-81
2021/09/04 09:18:07;;;;;;;13.95;10.18;;;17.50;71.80;;;;;;5069820;28;20111;-80
2021/09/04 09:20:37;;;;;;;11.25;8.15;;;17.50;71.30;;;;;;5071307;28;20013;-80
2021/09/04 09:23:10;;;;;;;12.38;8.23;;;17.50;71.40;;;;;;5063019;28;20025;-80
2021/09/04 09:25:37;;;;;;;10.38;7.75;;;17.50;71.50;;;;;;5066530;28;20019;-80
2021/09/04 09:28:02;;;;;;;12.43;8.32;;;17.60;71.40;;;;;;5068326;28;20102;-80
2021/09/04 09:30:34;;;;;;;8.07;5.97;;;17.70;71.20;;;;;;5068571;28;20056;-80
2021/09/04 09:33:00;;;;;;;8.13;5.73;;;17.80;71.30;;;;;;5070762;28;20047;-81
2021/09/04 09:35:39;;;;;;;9.27;6.65;;;18.00;71.20;;;;;;5068845;28;20025;-80
2021/09/04 09:38:06;;;;;;;11.30;7.90;;;18.20;70.70;;;;;;5070664;28;20070;-80
2021/09/04 09:40:33;;;;;;;8.02;5.65;;;18.20;69.50;;;;;;5069960;28;20103;-80
2021/09/04 09:42:59;;;;;;;10.32;7.50;;;18.20;69.70;;;;;;5070209;28;20032;-81
2021/09/04 09:45:44;;;;;;;9.18;6.38;;;18.40;69.50;;;;;;5066837;28;20103;-81
2021/09/04 09:48:10;;;;;;;7.68;5.90;;;18.40;69.30;;;;;;5069205;28;20054;-80
2021/09/04 09:50:36;;;;;;;7.38;4.80;;;18.40;69.20;;;;;;5067563;28;20487;-80
2021/09/04 09:53:04;;;;;;;6.57;4.68;;;18.50;69.30;;;;;;5069732;28;20021;-80
2021/09/04 09:55:29;;;;;;;5.68;4.03;;;18.60;69.00;;;;;;5069303;28;20537;-79
2021/09/04 09:57:59;;;;;;;7.50;5.00;;;18.60;68.80;;;;;;5068407;28;20107;-80
2021/09/04 10:00:27;;;;;;;7.43;5.30;;;18.70;68.60;;;;;;5066461;28;20028;-80
2021/09/04 10:03:01;;;;;;;8.60;6.75;;;18.70;68.40;;;;;;5067652;28;20036;-81
2021/09/04 10:05:29;;;;;;;9.52;6.10;;;18.70;67.90;;;;;;5074334;28;20432;-81
2021/09/04 10:07:55;;;;;;;9.00;6.20;;;18.70;67.90;;;;;;5068484;28;20608;-81
2021/09/04 10:10:22;;;;;;;9.95;6.80;;;18.60;67.80;;;;;;5067292;28;20040;-81
2021/09/04 10:12:48;;;;;;;10.65;6.68;;;18.60;67.60;;;;;;5066124;28;20020;-81
2021/09/04 10:15:14;;;;;;;7.25;5.15;;;18.60;68.30;;;;;;5069191;28;20070;-81
2021/09/04 10:17:41;;;;;;;10.20;7.75;;;18.70;67.70;;;;;;5069098;28;20508;-79
2021/09/04 10:20:07;;;;;;;8.50;5.72;;;18.80;67.10;;;;;;5069885;28;20104;-80
2021/09/04 10:22:33;;;;;;;9.90;7.43;;;18.90;67.40;;;;;;5067693;28;20039;-80
2021/09/04 10:25:02;;;;;;;13.65;8.38;;;19.00;66.40;;;;;;5068099;28;20024;-80
2021/09/04 10:27:42;;;;;;;9.43;6.53;;;18.90;65.80;;;;;;5069056;28;20099;-80
2021/09/04 10:30:33;;;;;;;10.05;7.10;;;18.90;66.20;;;;;;5069513;28;20594;-80
2021/09/04 10:33:07;;;;;;;10.20;7.07;;;18.90;66.20;;;;;;5072992;28;20032;-81
2021/09/04 10:35:48;;;;;;;7.65;5.93;;;19.00;66.40;;;;;;5071151;28;20047;-80
2021/09/04 10:38:19;;;;;;;7.47;5.20;;;19.10;66.30;;;;;;5072120;28;20020;-81
2021/09/04 10:41:15;;;;;;;10.70;7.43;;;19.20;66.30;;;;;;5072612;28;20497;-81
2021/09/04 10:43:46;;;;;;;7.20;4.60;;;19.20;65.50;;;;;;5065672;28;20078;-81
2021/09/04 10:46:14;;;;;;;7.20;5.05;;;19.30;65.80;;;;;;5071582;28;20089;-81
2021/09/04 10:48:39;;;;;;;10.77;7.53;;;19.40;65.80;;;;;;5073543;28;20020;-81
2021/09/04 10:51:10;;;;;;;9.88;6.10;;;19.40;65.00;;;;;;5073786;28;20036;-81
2021/09/04 10:53:49;;;;;;;9.90;7.05;;;19.50;65.10;;;;;;5073328;28;20467;-81
2021/09/04 10:56:29;;;;;;;9.15;5.70;;;19.50;64.70;;;;;;5073239;28;20032;-81
2021/09/04 10:58:54;;;;;;;8.70;5.57;;;19.60;64.90;;;;;;5073480;28;20440;-81
2021/09/04 11:01:52;;;;;;;10.10;6.43;;;19.70;64.60;;;;;;5073488;28;20103;-81
2021/09/04 11:04:18;;;;;;;6.63;4.93;;;19.70;64.50;;;;;;5065243;28;20059;-81
2021/09/04 11:06:49;;;;;;;8.95;6.43;;;19.90;64.70;;;;;;5073059;28;20154;-81
2021/09/04 11:09:16;;;;;;;8.73;6.50;;;19.90;64.40;;;;;;5067323;28;20032;-81
2021/09/04 11:11:43;;;;;;;7.78;6.00;;;19.90;63.90;;;;;;5065018;28;20391;-82
2021/09/04 11:14:23;;;;;;;6.85;5.20;;;19.90;63.80;;;;;;5070739;28;20809;-81
2021/09/04 11:16:54;;;;;;;10.52;6.55;;;20.00;63.90;;;;;;5069564;28;20028;-82
2021/09/04 11:19:22;;;;;;;7.93;4.82;;;20.10;63.90;;;;;;5071257;28;20024;-82
2021/09/04 11:21:55;;;;;;;5.72;3.67;;;20.20;63.80;;;;;;5064564;28;20021;-83
2021/09/04 11:24:33;;;;;;;6.10;4.63;;;20.40;63.50;;;;;;5069762;28;20194;-82
2021/09/04 11:27:07;;;;;;;8.00;5.43;;;20.40;63.20;;;;;;5067666;28;20027;-82
2021/09/04 11:29:44;;;;;;;6.72;4.10;;;20.50;62.80;;;;;;5065562;28;20036;-83
2021/09/04 11:32:11;;;;;;;8.57;5.57;;;20.60;62.90;;;;;;5072751;28;20036;-84
2021/09/04 11:34:38;;;;;;;5.53;4.03;;;20.60;62.60;;;;;;5066821;28;20032;-79
2021/09/04 11:37:16;;;;;;;6.68;5.47;;;20.80;62.50;;;;;;5068690;28;20112;-80
2021/09/04 11:39:41;;;;;;;8.07;5.30;;;20.70;60.70;;;;;;5067898;28;20053;-81
2021/09/04 11:42:15;;;;;;;6.82;4.40;;;20.70;61.60;;;;;;5071431;28;20059;-83
2021/09/04 11:45:17;;;;;;;6.60;4.55;;;20.80;61.70;;;;;;5068301;28;20392;-83
2021/09/04 11:47:45;;;;;;;5.50;4.47;;;21.00;61.50;;;;;;5058936;28;20040;-84
2021/09/04 11:50:29;;;;;;;6.13;3.90;;;21.10;61.30;;;;;;5069617;28;20372;-82
2021/09/04 11:52:55;;;;;;;6.20;4.80;;;21.30;61.30;;;;;;5069907;28;20055;-81
2021/09/04 11:55:29;;;;;;;8.02;5.10;;;21.40;60.90;;;;;;5070223;28;20068;-82
2021/09/04 11:58:00;;;;;;;6.72;4.53;;;21.40;60.70;;;;;;5069026;28;20356;-82
2021/09/04 12:00:37;;;;;;;6.90;5.30;;;21.40;60.80;;;;;;5064480;28;20020;-77
2021/09/04 12:03:05;;;;;;;9.65;5.85;;;21.40;59.90;;;;;;5071135;28;20114;-79
2021/09/04 12:05:32;;;;;;;5.22;3.88;;;21.40;60.40;;;;;;5070489;28;20020;-80
2021/09/04 12:08:17;;;;;;;8.85;6.10;;;21.60;60.60;;;;;;5071551;28;20033;-83
2021/09/04 12:10:45;;;;;;;6.07;4.22;;;21.60;60.00;;;;;;5068751;28;20098;-79
2021/09/04 12:13:16;;;;;;;7.25;5.20;;;21.80;60.10;;;;;;5070730;28;20025;-83
2021/09/04 12:15:43;;;;;;;7.72;4.82;;;21.90;59.50;;;;;;5070776;28;20749;-82
2021/09/04 12:18:09;;;;;;;7.07;4.70;;;21.90;59.40;;;;;;5065650;28;20458;-77
2021/09/04 12:20:45;;;;;;;5.82;4.00;;;21.90;59.40;;;;;;5066912;28;20070;-76
2021/09/04 12:23:15;;;;;;;6.57;3.33;;;22.00;59.60;;;;;;5067697;28;20060;-77
2021/09/04 12:25:41;;;;;;;8.93;5.38;;;22.30;59.40;;;;;;5067995;28;20042;-76
2021/09/04 12:28:10;;;;;;;7.50;5.03;;;22.30;58.20;;;;;;5070705;28;20408;-76
2021/09/04 12:30:56;;;;;;;8.05;4.88;;;22.40;58.30;;;;;;5069319;28;20032;-77
2021/09/04 12:33:22;;;;;;;6.82;4.53;;;22.50;58.10;;;;;;5060478;28;20035;-79
2021/09/04 12:35:58;;;;;;;6.72;5.13;;;22.70;58.00;;;;;;5066862;28;20024;-78
2021/09/04 12:38:27;;;;;;;6.97;4.50;;;22.70;57.40;;;;;;5069495;28;20025;-79
2021/09/04 12:41:15;;;;;;;5.32;3.75;;;22.70;57.50;;;;;;5070433;28;20025;-78